sensor_id;sensor_type;location;lat;lon;timestamp;P1;durP1;ratioP1;P2;durP2;ratioP2
18190;SDS011;47004;51.366;12.348;2022-10-19T00:01:43;23.00;;;9.20;;
18190;SDS011;47004;51.366;12.348;2022-10-19T00:03:45;17.40;;;8.47;;
18190;SDS011;47004;51.366;12.348;2022-10-19T00:05:49;16.27;;;8.30;;
18190;SDS011;47004;51.366;12.348;2022-10-19T00:07:52;19.97;;;8.83;;
18190;SDS011;47004;51.366;12.348;2022-10-19T00:09:54;22.53;;;9.30;;
18190;SDS011;47004;51.366;12.348;2022-10-19T00:11:56;19.73;;;8.87;;
18190;SDS011;47004;51.366;12.348;2022-10-19T00:13:58;18.43;;;8.40;;
18190;SDS011;47004;51.366;12.348;2022-10-19T00:16:00;20.57;;;9.73;;
18190;SDS011;47004;51.366;12.348;2022-10-19T00:18:07;25.73;;;11.30;;
18190;SDS011;47004;51.366;12.348;2022-10-19T00:20:10;19.37;;;9.23;;
18190;SDS011;47004;51.366;12.348;2022-10-19T00:22:12;21.17;;;10.73;;
18190;SDS011;47004;51.366;12.348;2022-10-19T00:24:15;24.10;;;10.53;;
18190;SDS011;47004;51.366;12.348;2022-10-19T00:26:17;20.50;;;10.10;;
18190;SDS011;47004;51.366;12.348;2022-10-19T00:28:19;24.67;;;10.10;;
18190;SDS011;47004;51.366;12.348;2022-10-19T00:30:21;22.17;;;10.17;;
18190;SDS011;47004;51.366;12.348;2022-10-19T00:32:23;20.40;;;10.13;;
18190;SDS011;47004;51.366;12.348;2022-10-19T00:34:24;22.33;;;9.80;;
18190;SDS011;47004;51.366;12.348;2022-10-19T00:36:27;18.90;;;9.50;;
18190;SDS011;47004;51.366;12.348;2022-10-19T00:38:31;23.07;;;9.40;;
18190;SDS011;47004;51.366;12.348;2022-10-19T00:40:37;22.97;;;10.30;;
18190;SDS011;47004;51.366;12.348;2022-10-19T00:42:39;22.27;;;10.97;;
18190;SDS011;47004;51.366;12.348;2022-10-19T00:44:58;19.53;;;9.63;;
18190;SDS011;47004;51.366;12.348;2022-10-19T00:47:03;23.57;;;9.47;;
18190;SDS011;47004;51.366;12.348;2022-10-19T00:49:08;24.10;;;10.80;;
18190;SDS011;47004;51.366;12.348;2022-10-19T00:51:12;27.47;;;11.90;;
18190;SDS011;47004;51.366;12.348;2022-10-19T00:53:14;23.57;;;11.37;;
18190;SDS011;47004;51.366;12.348;2022-10-19T00:55:17;28.67;;;11.23;;
18190;SDS011;47004;51.366;12.348;2022-10-19T00:57:20;21.93;;;10.43;;
18190;SDS011;47004;51.366;12.348;2022-10-19T00:59:23;22.50;;;10.93;;
18190;SDS011;47004;51.366;12.348;2022-10-19T01:01:27;25.47;;;11.07;;
18190;SDS011;47004;51.366;12.348;2022-10-19T01:03:30;22.80;;;10.90;;
18190;SDS011;47004;51.366;12.348;2022-10-19T01:05:33;26.60;;;10.30;;
18190;SDS011;47004;51.366;12.348;2022-10-19T01:07:35;21.83;;;10.67;;
18190;SDS011;47004;51.366;12.348;2022-10-19T01:09:37;20.20;;;10.07;;
18190;SDS011;47004;51.366;12.348;2022-10-19T01:11:41;26.23;;;11.43;;
18190;SDS011;47004;51.366;12.348;2022-10-19T01:13:54;25.33;;;11.50;;
18190;SDS011;47004;51.366;12.348;2022-10-19T01:16:02;20.57;;;9.80;;
18190;SDS011;47004;51.366;12.348;2022-10-19T01:18:14;20.17;;;10.07;;
18190;SDS011;47004;51.366;12.348;2022-10-19T01:20:31;24.70;;;9.93;;
18190;SDS011;47004;51.366;12.348;2022-10-19T01:22:51;21.37;;;9.93;;
18190;SDS011;47004;51.366;12.348;2022-10-19T01:25:04;23.00;;;10.43;;
18190;SDS011;47004;51.366;12.348;2022-10-19T01:27:20;23.03;;;10.10;;
18190;SDS011;47004;51.366;12.348;2022-10-19T01:32:07;16.23;;;8.50;;
18190;SDS011;47004;51.366;12.348;2022-10-19T01:34:12;16.60;;;8.47;;
18190;SDS011;47004;51.366;12.348;2022-10-19T01:36:20;18.87;;;8.93;;
18190;SDS011;47004;51.366;12.348;2022-10-19T01:38:30;17.83;;;8.67;;
18190;SDS011;47004;51.366;12.348;2022-10-19T01:40:37;16.63;;;8.43;;
18190;SDS011;47004;51.366;12.348;2022-10-19T01:42:45;14.60;;;7.63;;
18190;SDS011;47004;51.366;12.348;2022-10-19T01:44:52;17.77;;;8.50;;
18190;SDS011;47004;51.366;12.348;2022-10-19T01:47:02;17.07;;;8.20;;
18190;SDS011;47004;51.366;12.348;2022-10-19T01:49:08;14.07;;;8.30;;
18190;SDS011;47004;51.366;12.348;2022-10-19T01:51:15;16.77;;;7.97;;
18190;SDS011;47004;51.366;12.348;2022-10-19T01:53:20;17.57;;;8.57;;
18190;SDS011;47004;51.366;12.348;2022-10-19T01:55:24;16.57;;;8.80;;
18190;SDS011;47004;51.366;12.348;2022-10-19T01:57:28;21.07;;;9.30;;
18190;SDS011;47004;51.366;12.348;2022-10-19T01:59:33;19.17;;;9.63;;
18190;SDS011;47004;51.366;12.348;2022-10-19T02:01:38;16.37;;;8.00;;
18190;SDS011;47004;51.366;12.348;2022-10-19T02:03:44;16.87;;;8.17;;
18190;SDS011;47004;51.366;12.348;2022-10-19T02:05:46;15.70;;;7.77;;
18190;SDS011;47004;51.366;12.348;2022-10-19T02:07:52;18.03;;;8.23;;
18190;SDS011;47004;51.366;12.348;2022-10-19T02:09:58;13.77;;;7.83;;
18190;SDS011;47004;51.366;12.348;2022-10-19T02:12:00;18.20;;;8.07;;
18190;SDS011;47004;51.366;12.348;2022-10-19T02:14:06;15.17;;;7.50;;
18190;SDS011;47004;51.366;12.348;2022-10-19T02:16:12;16.53;;;7.57;;
18190;SDS011;47004;51.366;12.348;2022-10-19T02:18:19;14.60;;;7.10;;
18190;SDS011;47004;51.366;12.348;2022-10-19T02:20:26;15.60;;;6.70;;
18190;SDS011;47004;51.366;12.348;2022-10-19T02:22:28;12.37;;;6.57;;
18190;SDS011;47004;51.366;12.348;2022-10-19T02:24:31;13.00;;;6.77;;
18190;SDS011;47004;51.366;12.348;2022-10-19T02:26:33;10.13;;;6.10;;
18190;SDS011;47004;51.366;12.348;2022-10-19T02:28:35;11.63;;;6.40;;
18190;SDS011;47004;51.366;12.348;2022-10-19T02:30:37;13.10;;;5.97;;
18190;SDS011;47004;51.366;12.348;2022-10-19T02:32:39;11.97;;;6.63;;
18190;SDS011;47004;51.366;12.348;2022-10-19T02:34:42;10.60;;;6.10;;
18190;SDS011;47004;51.366;12.348;2022-10-19T02:36:45;10.93;;;5.83;;
18190;SDS011;47004;51.366;12.348;2022-10-19T02:38:48;13.20;;;6.60;;
18190;SDS011;47004;51.366;12.348;2022-10-19T02:40:51;13.70;;;6.90;;
18190;SDS011;47004;51.366;12.348;2022-10-19T02:43:09;11.83;;;6.00;;
18190;SDS011;47004;51.366;12.348;2022-10-19T02:45:15;13.90;;;6.87;;
18190;SDS011;47004;51.366;12.348;2022-10-19T02:47:23;12.60;;;6.80;;
18190;SDS011;47004;51.366;12.348;2022-10-19T02:49:31;13.63;;;7.03;;
18190;SDS011;47004;51.366;12.348;2022-10-19T02:51:37;16.57;;;7.50;;
18190;SDS011;47004;51.366;12.348;2022-10-19T02:53:42;14.60;;;7.47;;
18190;SDS011;47004;51.366;12.348;2022-10-19T02:55:44;11.83;;;6.90;;
18190;SDS011;47004;51.366;12.348;2022-10-19T02:57:48;15.70;;;8.37;;
18190;SDS011;47004;51.366;12.348;2022-10-19T02:59:50;26.77;;;10.00;;
18190;SDS011;47004;51.366;12.348;2022-10-19T03:01:52;18.63;;;8.23;;
18190;SDS011;47004;51.366;12.348;2022-10-19T03:03:54;22.87;;;9.73;;
18190;SDS011;47004;51.366;12.348;2022-10-19T03:05:56;23.10;;;9.83;;
18190;SDS011;47004;51.366;12.348;2022-10-19T03:07:58;19.60;;;8.97;;
18190;SDS011;47004;51.366;12.348;2022-10-19T03:10:01;23.60;;;9.90;;
18190;SDS011;47004;51.366;12.348;2022-10-19T03:12:03;17.10;;;8.93;;
18190;SDS011;47004;51.366;12.348;2022-10-19T03:14:05;17.27;;;8.13;;
18190;SDS011;47004;51.366;12.348;2022-10-19T03:16:07;18.20;;;8.73;;
18190;SDS011;47004;51.366;12.348;2022-10-19T03:18:10;19.40;;;8.47;;
18190;SDS011;47004;51.366;12.348;2022-10-19T03:20:12;14.83;;;7.83;;
18190;SDS011;47004;51.366;12.348;2022-10-19T03:22:14;17.53;;;7.73;;
18190;SDS011;47004;51.366;12.348;2022-10-19T03:24:16;16.67;;;8.03;;
18190;SDS011;47004;51.366;12.348;2022-10-19T03:26:19;13.40;;;7.53;;
18190;SDS011;47004;51.366;12.348;2022-10-19T03:28:21;16.47;;;7.27;;
18190;SDS011;47004;51.366;12.348;2022-10-19T03:30:22;16.83;;;7.57;;
18190;SDS011;47004;51.366;12.348;2022-10-19T03:32:24;19.80;;;9.17;;
18190;SDS011;47004;51.366;12.348;2022-10-19T03:34:26;18.50;;;8.90;;
18190;SDS011;47004;51.366;12.348;2022-10-19T03:36:28;17.80;;;8.63;;
18190;SDS011;47004;51.366;12.348;2022-10-19T03:38:32;20.97;;;8.73;;
18190;SDS011;47004;51.366;12.348;2022-10-19T03:40:33;17.93;;;7.83;;
18190;SDS011;47004;51.366;12.348;2022-10-19T03:42:37;15.77;;;7.97;;
18190;SDS011;47004;51.366;12.348;2022-10-19T03:44:38;14.53;;;7.70;;
18190;SDS011;47004;51.366;12.348;2022-10-19T03:46:41;16.80;;;7.70;;
18190;SDS011;47004;51.366;12.348;2022-10-19T03:48:43;16.13;;;7.33;;
18190;SDS011;47004;51.366;12.348;2022-10-19T03:50:46;16.33;;;7.37;;
18190;SDS011;47004;51.366;12.348;2022-10-19T03:52:47;13.50;;;7.27;;
18190;SDS011;47004;51.366;12.348;2022-10-19T03:54:49;13.20;;;6.83;;
18190;SDS011;47004;51.366;12.348;2022-10-19T03:56:51;14.97;;;7.50;;
18190;SDS011;47004;51.366;12.348;2022-10-19T03:58:55;14.10;;;6.50;;
18190;SDS011;47004;51.366;12.348;2022-10-19T04:00:58;15.03;;;7.73;;
18190;SDS011;47004;51.366;12.348;2022-10-19T04:03:00;13.33;;;6.13;;
18190;SDS011;47004;51.366;12.348;2022-10-19T04:05:02;12.13;;;6.80;;
18190;SDS011;47004;51.366;12.348;2022-10-19T04:07:04;13.70;;;6.80;;
18190;SDS011;47004;51.366;12.348;2022-10-19T04:09:07;11.33;;;6.70;;
18190;SDS011;47004;51.366;12.348;2022-10-19T04:11:12;13.03;;;5.93;;
18190;SDS011;47004;51.366;12.348;2022-10-19T04:13:15;12.80;;;6.60;;
18190;SDS011;47004;51.366;12.348;2022-10-19T04:15:18;14.00;;;7.40;;
18190;SDS011;47004;51.366;12.348;2022-10-19T04:17:20;12.53;;;6.90;;
18190;SDS011;47004;51.366;12.348;2022-10-19T04:19:22;16.73;;;7.30;;
18190;SDS011;47004;51.366;12.348;2022-10-19T04:21:24;14.17;;;6.53;;
18190;SDS011;47004;51.366;12.348;2022-10-19T04:23:28;13.03;;;6.67;;
18190;SDS011;47004;51.366;12.348;2022-10-19T04:25:32;12.87;;;6.40;;
18190;SDS011;47004;51.366;12.348;2022-10-19T04:27:33;12.33;;;6.40;;
18190;SDS011;47004;51.366;12.348;2022-10-19T04:29:35;13.53;;;7.10;;
18190;SDS011;47004;51.366;12.348;2022-10-19T04:31:39;13.00;;;7.07;;
18190;SDS011;47004;51.366;12.348;2022-10-19T04:33:41;14.33;;;7.10;;
18190;SDS011;47004;51.366;12.348;2022-10-19T04:35:42;15.70;;;7.80;;
18190;SDS011;47004;51.366;12.348;2022-10-19T04:37:44;14.70;;;7.13;;
18190;SDS011;47004;51.366;12.348;2022-10-19T04:39:46;13.67;;;7.07;;
18190;SDS011;47004;51.366;12.348;2022-10-19T04:41:48;18.20;;;7.13;;
18190;SDS011;47004;51.366;12.348;2022-10-19T04:43:53;14.57;;;7.47;;
18190;SDS011;47004;51.366;12.348;2022-10-19T04:45:56;16.57;;;7.40;;
18190;SDS011;47004;51.366;12.348;2022-10-19T04:48:04;17.87;;;7.83;;
18190;SDS011;47004;51.366;12.348;2022-10-19T04:50:06;17.77;;;7.27;;
18190;SDS011;47004;51.366;12.348;2022-10-19T04:52:09;13.30;;;7.07;;
18190;SDS011;47004;51.366;12.348;2022-10-19T04:54:10;13.40;;;6.20;;
18190;SDS011;47004;51.366;12.348;2022-10-19T04:56:13;11.27;;;6.97;;
18190;SDS011;47004;51.366;12.348;2022-10-19T04:58:16;16.53;;;7.43;;
18190;SDS011;47004;51.366;12.348;2022-10-19T05:00:18;13.20;;;6.20;;
18190;SDS011;47004;51.366;12.348;2022-10-19T05:02:20;11.90;;;6.37;;
18190;SDS011;47004;51.366;12.348;2022-10-19T05:04:23;15.27;;;6.90;;
18190;SDS011;47004;51.366;12.348;2022-10-19T05:06:25;15.40;;;8.10;;
18190;SDS011;47004;51.366;12.348;2022-10-19T05:08:27;14.00;;;6.87;;
18190;SDS011;47004;51.366;12.348;2022-10-19T05:10:29;11.90;;;6.60;;
18190;SDS011;47004;51.366;12.348;2022-10-19T05:12:31;14.23;;;7.17;;
18190;SDS011;47004;51.366;12.348;2022-10-19T05:14:34;13.80;;;6.73;;
18190;SDS011;47004;51.366;12.348;2022-10-19T05:16:36;14.40;;;7.07;;
18190;SDS011;47004;51.366;12.348;2022-10-19T05:18:38;13.73;;;6.73;;
18190;SDS011;47004;51.366;12.348;2022-10-19T05:20:42;14.73;;;7.17;;
18190;SDS011;47004;51.366;12.348;2022-10-19T05:22:43;17.20;;;7.07;;
18190;SDS011;47004;51.366;12.348;2022-10-19T05:24:46;14.03;;;7.50;;
18190;SDS011;47004;51.366;12.348;2022-10-19T05:26:48;12.73;;;6.97;;
18190;SDS011;47004;51.366;12.348;2022-10-19T05:28:50;13.43;;;7.17;;
18190;SDS011;47004;51.366;12.348;2022-10-19T05:30:55;13.30;;;6.93;;
18190;SDS011;47004;51.366;12.348;2022-10-19T05:33:04;15.30;;;7.70;;
18190;SDS011;47004;51.366;12.348;2022-10-19T05:35:06;12.87;;;6.90;;
18190;SDS011;47004;51.366;12.348;2022-10-19T05:37:10;16.87;;;6.97;;
18190;SDS011;47004;51.366;12.348;2022-10-19T05:39:12;18.63;;;7.80;;
18190;SDS011;47004;51.366;12.348;2022-10-19T05:41:18;17.10;;;7.97;;
18190;SDS011;47004;51.366;12.348;2022-10-19T05:43:23;14.63;;;7.10;;
18190;SDS011;47004;51.366;12.348;2022-10-19T05:45:24;13.80;;;7.27;;
18190;SDS011;47004;51.366;12.348;2022-10-19T05:47:26;19.53;;;7.40;;
18190;SDS011;47004;51.366;12.348;2022-10-19T05:49:28;18.33;;;7.40;;
18190;SDS011;47004;51.366;12.348;2022-10-19T05:51:30;14.33;;;7.03;;
18190;SDS011;47004;51.366;12.348;2022-10-19T05:53:34;12.23;;;6.23;;
18190;SDS011;47004;51.366;12.348;2022-10-19T05:55:36;11.47;;;5.90;;
18190;SDS011;47004;51.366;12.348;2022-10-19T05:57:38;9.30;;;5.67;;
18190;SDS011;47004;51.366;12.348;2022-10-19T05:59:40;8.50;;;5.43;;
18190;SDS011;47004;51.366;12.348;2022-10-19T06:01:42;8.77;;;5.93;;
18190;SDS011;47004;51.366;12.348;2022-10-19T06:03:44;10.20;;;5.50;;
18190;SDS011;47004;51.366;12.348;2022-10-19T06:05:46;10.33;;;5.87;;
18190;SDS011;47004;51.366;12.348;2022-10-19T06:07:49;14.73;;;6.20;;
18190;SDS011;47004;51.366;12.348;2022-10-19T06:09:52;12.60;;;6.00;;
18190;SDS011;47004;51.366;12.348;2022-10-19T06:11:54;14.50;;;6.13;;
18190;SDS011;47004;51.366;12.348;2022-10-19T06:13:56;11.43;;;5.90;;
18190;SDS011;47004;51.366;12.348;2022-10-19T06:15:59;16.53;;;6.93;;
18190;SDS011;47004;51.366;12.348;2022-10-19T06:18:02;18.00;;;7.90;;
18190;SDS011;47004;51.366;12.348;2022-10-19T06:20:05;21.23;;;8.33;;
18190;SDS011;47004;51.366;12.348;2022-10-19T06:22:07;17.13;;;7.50;;
18190;SDS011;47004;51.366;12.348;2022-10-19T06:24:09;19.13;;;8.53;;
18190;SDS011;47004;51.366;12.348;2022-10-19T06:26:13;18.13;;;9.00;;
18190;SDS011;47004;51.366;12.348;2022-10-19T06:28:15;21.60;;;8.27;;
18190;SDS011;47004;51.366;12.348;2022-10-19T06:30:17;16.10;;;7.97;;
18190;SDS011;47004;51.366;12.348;2022-10-19T06:32:22;15.63;;;7.37;;
18190;SDS011;47004;51.366;12.348;2022-10-19T06:34:24;15.63;;;7.30;;
18190;SDS011;47004;51.366;12.348;2022-10-19T06:36:27;13.80;;;7.07;;
18190;SDS011;47004;51.366;12.348;2022-10-19T06:38:31;13.63;;;7.00;;
18190;SDS011;47004;51.366;12.348;2022-10-19T06:40:33;14.77;;;7.30;;
18190;SDS011;47004;51.366;12.348;2022-10-19T06:42:36;12.00;;;6.33;;
18190;SDS011;47004;51.366;12.348;2022-10-19T06:44:39;16.53;;;7.17;;
18190;SDS011;47004;51.366;12.348;2022-10-19T06:46:43;17.00;;;7.27;;
18190;SDS011;47004;51.366;12.348;2022-10-19T06:48:48;14.13;;;6.60;;
18190;SDS011;47004;51.366;12.348;2022-10-19T06:50:54;15.53;;;6.70;;
18190;SDS011;47004;51.366;12.348;2022-10-19T06:52:57;13.27;;;6.47;;
18190;SDS011;47004;51.366;12.348;2022-10-19T06:54:59;17.33;;;6.77;;
18190;SDS011;47004;51.366;12.348;2022-10-19T06:57:01;11.77;;;6.20;;
18190;SDS011;47004;51.366;12.348;2022-10-19T06:59:04;11.73;;;6.00;;
18190;SDS011;47004;51.366;12.348;2022-10-19T07:01:06;18.10;;;6.93;;
18190;SDS011;47004;51.366;12.348;2022-10-19T07:03:09;13.87;;;5.67;;
18190;SDS011;47004;51.366;12.348;2022-10-19T07:05:11;16.33;;;7.03;;
18190;SDS011;47004;51.366;12.348;2022-10-19T07:07:12;14.27;;;6.83;;
18190;SDS011;47004;51.366;12.348;2022-10-19T07:09:15;14.60;;;6.50;;
18190;SDS011;47004;51.366;12.348;2022-10-19T07:11:18;11.67;;;6.20;;
18190;SDS011;47004;51.366;12.348;2022-10-19T07:13:21;13.33;;;6.40;;
18190;SDS011;47004;51.366;12.348;2022-10-19T07:15:25;12.90;;;6.60;;
18190;SDS011;47004;51.366;12.348;2022-10-19T07:17:27;11.63;;;6.37;;
18190;SDS011;47004;51.366;12.348;2022-10-19T07:19:29;12.03;;;6.30;;
18190;SDS011;47004;51.366;12.348;2022-10-19T07:21:31;16.90;;;6.93;;
18190;SDS011;47004;51.366;12.348;2022-10-19T07:23:40;12.03;;;6.33;;
18190;SDS011;47004;51.366;12.348;2022-10-19T07:25:44;11.27;;;5.90;;
18190;SDS011;47004;51.366;12.348;2022-10-19T07:27:46;11.77;;;5.90;;
18190;SDS011;47004;51.366;12.348;2022-10-19T07:29:48;9.60;;;5.30;;
18190;SDS011;47004;51.366;12.348;2022-10-19T07:31:51;9.63;;;4.90;;
18190;SDS011;47004;51.366;12.348;2022-10-19T07:33:54;11.77;;;5.80;;
18190;SDS011;47004;51.366;12.348;2022-10-19T07:35:57;9.10;;;5.03;;
18190;SDS011;47004;51.366;12.348;2022-10-19T07:38:00;8.67;;;5.23;;
18190;SDS011;47004;51.366;12.348;2022-10-19T07:40:02;8.87;;;5.10;;
18190;SDS011;47004;51.366;12.348;2022-10-19T07:42:04;8.37;;;5.27;;
18190;SDS011;47004;51.366;12.348;2022-10-19T07:44:06;8.83;;;5.13;;
18190;SDS011;47004;51.366;12.348;2022-10-19T07:46:10;10.13;;;5.53;;
18190;SDS011;47004;51.366;12.348;2022-10-19T07:48:15;11.63;;;4.63;;
18190;SDS011;47004;51.366;12.348;2022-10-19T07:50:17;12.30;;;5.70;;
18190;SDS011;47004;51.366;12.348;2022-10-19T07:52:19;9.30;;;5.07;;
18190;SDS011;47004;51.366;12.348;2022-10-19T07:54:21;10.73;;;5.40;;
18190;SDS011;47004;51.366;12.348;2022-10-19T07:56:24;7.00;;;4.57;;
18190;SDS011;47004;51.366;12.348;2022-10-19T07:58:27;11.10;;;5.80;;
18190;SDS011;47004;51.366;12.348;2022-10-19T08:00:29;8.70;;;5.23;;
18190;SDS011;47004;51.366;12.348;2022-10-19T08:02:31;8.43;;;4.80;;
18190;SDS011;47004;51.366;12.348;2022-10-19T08:04:34;10.27;;;5.53;;
18190;SDS011;47004;51.366;12.348;2022-10-19T08:06:38;8.73;;;5.13;;
18190;SDS011;47004;51.366;12.348;2022-10-19T08:08:40;11.87;;;5.70;;
18190;SDS011;47004;51.366;12.348;2022-10-19T08:10:42;10.07;;;5.30;;
18190;SDS011;47004;51.366;12.348;2022-10-19T08:12:44;11.13;;;5.47;;
18190;SDS011;47004;51.366;12.348;2022-10-19T08:14:46;8.97;;;5.07;;
18190;SDS011;47004;51.366;12.348;2022-10-19T08:16:48;9.27;;;5.17;;
18190;SDS011;47004;51.366;12.348;2022-10-19T08:18:50;9.03;;;4.43;;
18190;SDS011;47004;51.366;12.348;2022-10-19T08:20:54;9.27;;;5.60;;
18190;SDS011;47004;51.366;12.348;2022-10-19T08:22:56;10.53;;;5.37;;
18190;SDS011;47004;51.366;12.348;2022-10-19T08:24:58;9.03;;;5.10;;
18190;SDS011;47004;51.366;12.348;2022-10-19T08:27:00;7.77;;;5.17;;
18190;SDS011;47004;51.366;12.348;2022-10-19T08:29:03;7.83;;;4.27;;
18190;SDS011;47004;51.366;12.348;2022-10-19T08:31:10;8.90;;;4.77;;
18190;SDS011;47004;51.366;12.348;2022-10-19T08:33:13;10.47;;;5.03;;
18190;SDS011;47004;51.366;12.348;2022-10-19T08:35:14;10.87;;;5.77;;
18190;SDS011;47004;51.366;12.348;2022-10-19T08:37:18;10.90;;;5.33;;
18190;SDS011;47004;51.366;12.348;2022-10-19T08:39:19;11.20;;;5.40;;
18190;SDS011;47004;51.366;12.348;2022-10-19T08:41:23;8.20;;;4.50;;
18190;SDS011;47004;51.366;12.348;2022-10-19T08:43:32;9.13;;;5.13;;
18190;SDS011;47004;51.366;12.348;2022-10-19T08:45:38;10.13;;;5.23;;
18190;SDS011;47004;51.366;12.348;2022-10-19T08:47:52;9.07;;;4.93;;
18190;SDS011;47004;51.366;12.348;2022-10-19T08:49:59;8.27;;;4.60;;
18190;SDS011;47004;51.366;12.348;2022-10-19T08:52:03;9.33;;;4.87;;
18190;SDS011;47004;51.366;12.348;2022-10-19T08:54:13;7.23;;;4.37;;
18190;SDS011;47004;51.366;12.348;2022-10-19T08:56:19;7.43;;;4.77;;
18190;SDS011;47004;51.366;12.348;2022-10-19T08:58:31;7.47;;;4.87;;
18190;SDS011;47004;51.366;12.348;2022-10-19T09:00:44;7.77;;;4.40;;
18190;SDS011;47004;51.366;12.348;2022-10-19T09:02:55;10.13;;;4.80;;
18190;SDS011;47004;51.366;12.348;2022-10-19T09:05:04;8.73;;;4.70;;
18190;SDS011;47004;51.366;12.348;2022-10-19T09:07:19;9.17;;;4.40;;
18190;SDS011;47004;51.366;12.348;2022-10-19T09:09:28;8.17;;;4.20;;
18190;SDS011;47004;51.366;12.348;2022-10-19T09:11:33;6.77;;;4.17;;
18190;SDS011;47004;51.366;12.348;2022-10-19T09:13:42;6.30;;;3.97;;
18190;SDS011;47004;51.366;12.348;2022-10-19T09:15:47;8.97;;;4.43;;
18190;SDS011;47004;51.366;12.348;2022-10-19T09:17:50;6.20;;;3.87;;
18190;SDS011;47004;51.366;12.348;2022-10-19T09:19:52;8.03;;;3.70;;
18190;SDS011;47004;51.366;12.348;2022-10-19T09:21:55;6.33;;;3.70;;
18190;SDS011;47004;51.366;12.348;2022-10-19T09:24:01;7.00;;;3.87;;
18190;SDS011;47004;51.366;12.348;2022-10-19T09:26:09;6.50;;;3.80;;
18190;SDS011;47004;51.366;12.348;2022-10-19T09:28:17;6.53;;;3.67;;
18190;SDS011;47004;51.366;12.348;2022-10-19T09:30:45;5.37;;;3.23;;
18190;SDS011;47004;51.366;12.348;2022-10-19T09:32:50;6.77;;;3.33;;
18190;SDS011;47004;51.366;12.348;2022-10-19T09:34:59;5.70;;;3.30;;
18190;SDS011;47004;51.366;12.348;2022-10-19T09:37:02;4.10;;;2.93;;
18190;SDS011;47004;51.366;12.348;2022-10-19T09:39:04;6.57;;;3.87;;
18190;SDS011;47004;51.366;12.348;2022-10-19T09:41:12;4.80;;;3.80;;
18190;SDS011;47004;51.366;12.348;2022-10-19T09:43:18;7.53;;;3.80;;
18190;SDS011;47004;51.366;12.348;2022-10-19T09:45:25;6.20;;;3.63;;
18190;SDS011;47004;51.366;12.348;2022-10-19T09:47:34;5.97;;;3.33;;
18190;SDS011;47004;51.366;12.348;2022-10-19T09:49:38;8.00;;;3.30;;
18190;SDS011;47004;51.366;12.348;2022-10-19T09:51:45;7.93;;;3.37;;
18190;SDS011;47004;51.366;12.348;2022-10-19T09:53:51;4.00;;;2.80;;
18190;SDS011;47004;51.366;12.348;2022-10-19T09:55:58;6.70;;;2.90;;
18190;SDS011;47004;51.366;12.348;2022-10-19T09:58:08;3.83;;;2.90;;
18190;SDS011;47004;51.366;12.348;2022-10-19T10:00:17;5.17;;;2.43;;
18190;SDS011;47004;51.366;12.348;2022-10-19T10:02:20;5.97;;;2.63;;
18190;SDS011;47004;51.366;12.348;2022-10-19T10:04:28;4.17;;;2.30;;
18190;SDS011;47004;51.366;12.348;2022-10-19T10:06:30;4.47;;;2.57;;
18190;SDS011;47004;51.366;12.348;2022-10-19T10:08:34;6.87;;;3.00;;
18190;SDS011;47004;51.366;12.348;2022-10-19T10:10:41;4.07;;;2.50;;
18190;SDS011;47004;51.366;12.348;2022-10-19T10:12:44;5.03;;;2.70;;
18190;SDS011;47004;51.366;12.348;2022-10-19T10:14:48;4.30;;;2.47;;
18190;SDS011;47004;51.366;12.348;2022-10-19T10:16:53;4.40;;;2.60;;
18190;SDS011;47004;51.366;12.348;2022-10-19T10:18:57;5.67;;;2.60;;
18190;SDS011;47004;51.366;12.348;2022-10-19T10:21:01;3.40;;;2.50;;
18190;SDS011;47004;51.366;12.348;2022-10-19T10:23:11;5.57;;;2.93;;
18190;SDS011;47004;51.366;12.348;2022-10-19T10:25:24;4.80;;;2.67;;
18190;SDS011;47004;51.366;12.348;2022-10-19T10:27:30;9.43;;;3.70;;
18190;SDS011;47004;51.366;12.348;2022-10-19T10:29:34;6.47;;;3.50;;
18190;SDS011;47004;51.366;12.348;2022-10-19T10:31:38;6.10;;;3.20;;
18190;SDS011;47004;51.366;12.348;2022-10-19T10:33:42;4.87;;;3.20;;
18190;SDS011;47004;51.366;12.348;2022-10-19T10:35:45;6.17;;;3.10;;
18190;SDS011;47004;51.366;12.348;2022-10-19T10:37:52;6.70;;;3.23;;
18190;SDS011;47004;51.366;12.348;2022-10-19T10:40:14;5.53;;;3.27;;
18190;SDS011;47004;51.366;12.348;2022-10-19T10:42:21;5.43;;;3.13;;
18190;SDS011;47004;51.366;12.348;2022-10-19T10:44:28;3.40;;;2.40;;
18190;SDS011;47004;51.366;12.348;2022-10-19T10:46:33;4.83;;;2.90;;
18190;SDS011;47004;51.366;12.348;2022-10-19T10:48:39;3.93;;;2.50;;
18190;SDS011;47004;51.366;12.348;2022-10-19T10:50:44;3.97;;;2.10;;
18190;SDS011;47004;51.366;12.348;2022-10-19T10:52:56;3.47;;;1.90;;
18190;SDS011;47004;51.366;12.348;2022-10-19T10:55:00;2.97;;;1.80;;
18190;SDS011;47004;51.366;12.348;2022-10-19T10:57:07;2.97;;;1.50;;
18190;SDS011;47004;51.366;12.348;2022-10-19T10:59:13;2.77;;;1.77;;
18190;SDS011;47004;51.366;12.348;2022-10-19T11:01:22;3.10;;;1.67;;
18190;SDS011;47004;51.366;12.348;2022-10-19T11:03:28;2.13;;;1.57;;
18190;SDS011;47004;51.366;12.348;2022-10-19T11:05:35;3.53;;;1.50;;
18190;SDS011;47004;51.366;12.348;2022-10-19T11:07:42;3.90;;;1.53;;
18190;SDS011;47004;51.366;12.348;2022-10-19T11:09:48;2.97;;;1.47;;
18190;SDS011;47004;51.366;12.348;2022-10-19T11:11:53;3.63;;;1.50;;
18190;SDS011;47004;51.366;12.348;2022-10-19T11:13:59;3.03;;;1.50;;
18190;SDS011;47004;51.366;12.348;2022-10-19T11:16:17;1.90;;;1.40;;
18190;SDS011;47004;51.366;12.348;2022-10-19T11:18:23;1.90;;;1.37;;
18190;SDS011;47004;51.366;12.348;2022-10-19T11:20:28;1.90;;;1.30;;
18190;SDS011;47004;51.366;12.348;2022-10-19T11:22:37;3.37;;;1.40;;
18190;SDS011;47004;51.366;12.348;2022-10-19T11:24:54;2.80;;;1.40;;
18190;SDS011;47004;51.366;12.348;2022-10-19T11:27:13;2.20;;;1.47;;
18190;SDS011;47004;51.366;12.348;2022-10-19T11:29:32;2.83;;;1.80;;
18190;SDS011;47004;51.366;12.348;2022-10-19T11:31:48;1.73;;;1.40;;
18190;SDS011;47004;51.366;12.348;2022-10-19T11:33:53;2.47;;;1.50;;
18190;SDS011;47004;51.366;12.348;2022-10-19T11:36:01;1.83;;;1.60;;
18190;SDS011;47004;51.366;12.348;2022-10-19T11:38:15;3.10;;;1.50;;
18190;SDS011;47004;51.366;12.348;2022-10-19T11:40:29;2.97;;;1.40;;
18190;SDS011;47004;51.366;12.348;2022-10-19T11:42:43;3.83;;;1.60;;
18190;SDS011;47004;51.366;12.348;2022-10-19T11:44:56;5.37;;;1.80;;
18190;SDS011;47004;51.366;12.348;2022-10-19T11:47:11;2.30;;;1.80;;
18190;SDS011;47004;51.366;12.348;2022-10-19T11:49:25;1.93;;;1.70;;
18190;SDS011;47004;51.366;12.348;2022-10-19T11:51:45;5.80;;;1.73;;
18190;SDS011;47004;51.366;12.348;2022-10-19T11:53:57;2.00;;;1.80;;
18190;SDS011;47004;51.366;12.348;2022-10-19T11:56:11;3.03;;;1.70;;
18190;SDS011;47004;51.366;12.348;2022-10-19T11:58:24;3.33;;;1.70;;
18190;SDS011;47004;51.366;12.348;2022-10-19T12:00:40;2.07;;;1.50;;
18190;SDS011;47004;51.366;12.348;2022-10-19T12:03:02;2.67;;;1.63;;
18190;SDS011;47004;51.366;12.348;2022-10-19T12:05:20;4.00;;;1.40;;
18190;SDS011;47004;51.366;12.348;2022-10-19T12:07:33;2.13;;;1.33;;
18190;SDS011;47004;51.366;12.348;2022-10-19T12:09:52;4.70;;;1.73;;
18190;SDS011;47004;51.366;12.348;2022-10-19T12:14:31;3.80;;;1.80;;
18190;SDS011;47004;51.366;12.348;2022-10-19T12:16:37;2.47;;;1.57;;
18190;SDS011;47004;51.366;12.348;2022-10-19T12:18:43;2.03;;;1.50;;
18190;SDS011;47004;51.366;12.348;2022-10-19T12:20:49;2.93;;;1.53;;